sensor_id;sensor_type;location;lat;lon;timestamp;pressure;altitude;pressure_sealevel;temperature;humidity
7180;BME280;3631;42.152;24.756;2023-07-22T00:00:58;83734.91;;;-144.30;61.20
7180;BME280;3631;42.152;24.756;2023-07-22T00:03:27;83814.41;;;-144.30;61.40
7180;BME280;3631;42.152;24.756;2023-07-22T00:06:04;84398.63;;;-144.30;61.28
7180;BME280;3631;42.152;24.756;2023-07-22T00:08:32;83790.56;;;-144.30;61.23
7180;BME280;3631;42.152;24.756;2023-07-22T00:10:59;83792.53;;;-144.30;60.88
7180;BME280;3631;42.152;24.756;2023-07-22T00:13:26;83818.38;;;-144.30;61.47
7180;BME280;3631;42.152;24.756;2023-07-22T00:15:53;83611.72;;;-144.30;61.79
7180;BME280;3631;42.152;24.756;2023-07-22T00:18:20;83826.31;;;-144.30;61.86
7180;BME280;3631;42.152;24.756;2023-07-22T00:20:48;83830.28;;;-144.30;62.23
7180;BME280;3631;42.152;24.756;2023-07-22T00:23:17;83824.31;;;-144.30;62.64
7180;BME280;3631;42.152;24.756;2023-07-22T00:25:45;83842.22;;;-144.30;62.56
7180;BME280;3631;42.152;24.756;2023-07-22T00:28:12;83828.31;;;-144.30;62.52
7180;BME280;3631;42.152;24.756;2023-07-22T00:30:39;83846.19;;;-144.30;62.71
7180;BME280;3631;42.152;24.756;2023-07-22T00:33:07;83834.25;;;-144.30;62.85
7180;BME280;3631;42.152;24.756;2023-07-22T00:35:34;83842.22;;;-144.30;62.88
7180;BME280;3631;42.152;24.756;2023-07-22T00:38:02;83850.16;;;-144.30;63.09
7180;BME280;3631;42.152;24.756;2023-07-22T00:40:30;83862.09;;;-144.30;63.48
7180;BME280;3631;42.152;24.756;2023-07-22T00:42:57;83860.09;;;-144.30;63.46
7180;BME280;3631;42.152;24.756;2023-07-22T00:45:24;83877.97;;;-144.30;63.26
7180;BME280;3631;42.152;24.756;2023-07-22T00:47:51;83850.16;;;-144.30;63.47
7180;BME280;3631;42.152;24.756;2023-07-22T00:50:18;83891.88;;;-144.30;63.57
7180;BME280;3631;42.152;24.756;2023-07-22T00:52:45;83860.09;;;-144.30;63.35
7180;BME280;3631;42.152;24.756;2023-07-22T00:55:14;83850.16;;;-144.30;63.66
7180;BME280;3631;42.152;24.756;2023-07-22T00:57:41;83915.75;;;-144.30;64.16
7180;BME280;3631;42.152;24.756;2023-07-22T01:00:08;83885.94;;;-144.30;64.22
7180;BME280;3631;42.152;24.756;2023-07-22T01:02:37;83838.25;;;-144.30;64.40
7180;BME280;3631;42.152;24.756;2023-07-22T01:05:05;83858.09;;;-144.30;64.39
7180;BME280;3631;42.152;24.756;2023-07-22T01:07:33;83840.22;;;-144.30;63.99
7180;BME280;3631;42.152;24.756;2023-07-22T01:10:01;83854.13;;;-144.30;63.66
7180;BME280;3631;42.152;24.756;2023-07-22T01:12:32;83877.97;;;-144.30;63.77
7180;BME280;3631;42.152;24.756;2023-07-22T01:14:59;83866.06;;;-144.30;63.46
7180;BME280;3631;42.152;24.756;2023-07-22T01:17:29;83850.16;;;-144.30;63.80
7180;BME280;3631;42.152;24.756;2023-07-22T01:19:56;83834.25;;;-144.30;63.68
7180;BME280;3631;42.152;24.756;2023-07-22T01:22:23;83872.03;;;-144.30;63.94
7180;BME280;3631;42.152;24.756;2023-07-22T01:24:52;83895.88;;;-144.30;64.12
7180;BME280;3631;42.152;24.756;2023-07-22T01:27:20;83891.88;;;-144.30;63.99
7180;BME280;3631;42.152;24.756;2023-07-22T01:29:50;83879.97;;;-144.30;64.26
7180;BME280;3631;42.152;24.756;2023-07-22T01:32:17;83909.78;;;-144.30;64.45
7180;BME280;3631;42.152;24.756;2023-07-22T01:34:45;83885.94;;;-144.30;64.41
7180;BME280;3631;42.152;24.756;2023-07-22T01:37:12;83907.78;;;-144.30;64.31
7180;BME280;3631;42.152;24.756;2023-07-22T01:39:39;83877.97;;;-144.30;64.31
7180;BME280;3631;42.152;24.756;2023-07-22T01:42:08;83870.03;;;-144.30;64.48
7180;BME280;3631;42.152;24.756;2023-07-22T01:44:35;83895.88;;;-144.30;64.62
7180;BME280;3631;42.152;24.756;2023-07-22T01:47:02;83909.78;;;-144.30;64.38
7180;BME280;3631;42.152;24.756;2023-07-22T01:49:29;83893.88;;;-144.30;64.64
7180;BME280;3631;42.152;24.756;2023-07-22T01:51:56;83917.72;;;-144.30;64.88
7180;BME280;3631;42.152;24.756;2023-07-22T01:54:23;83917.72;;;-144.30;64.70
7180;BME280;3631;42.152;24.756;2023-07-22T01:56:50;83881.97;;;-144.30;64.52
7180;BME280;3631;42.152;24.756;2023-07-22T01:59:18;83905.81;;;-144.30;64.84
7180;BME280;3631;42.152;24.756;2023-07-22T02:01:45;83895.88;;;-144.30;65.15
7180;BME280;3631;42.152;24.756;2023-07-22T02:04:13;83899.84;;;-144.30;65.30
7180;BME280;3631;42.152;24.756;2023-07-22T02:06:39;83907.78;;;-144.30;65.19
7180;BME280;3631;42.152;24.756;2023-07-22T02:09:06;83881.97;;;-144.30;64.93
7180;BME280;3631;42.152;24.756;2023-07-22T02:11:35;83862.09;;;-144.30;64.88
7180;BME280;3631;42.152;24.756;2023-07-22T02:14:02;83766.72;;;-144.30;64.94
7180;BME280;3631;42.152;24.756;2023-07-22T02:16:33;83881.97;;;-144.30;65.04
7180;BME280;3631;42.152;24.756;2023-07-22T02:19:00;84172.06;;;-144.30;64.92
7180;BME280;3631;42.152;24.756;2023-07-22T02:21:27;83885.94;;;-144.30;64.78
7180;BME280;3631;42.152;24.756;2023-07-22T02:23:54;83879.97;;;-144.30;64.86
7180;BME280;3631;42.152;24.756;2023-07-22T02:26:21;83895.88;;;-144.30;65.15
7180;BME280;3631;42.152;24.756;2023-07-22T02:28:49;83872.03;;;-144.30;64.86
7180;BME280;3631;42.152;24.756;2023-07-22T02:31:16;83868.03;;;-144.30;64.77
7180;BME280;3631;42.152;24.756;2023-07-22T02:33:44;83889.91;;;-144.30;64.70
7180;BME280;3631;42.152;24.756;2023-07-22T02:36:12;83877.97;;;-144.30;64.78
7180;BME280;3631;42.152;24.756;2023-07-22T02:38:39;83826.31;;;-144.30;64.57
7180;BME280;3631;42.152;24.756;2023-07-22T02:41:06;83881.97;;;-144.30;64.54
7180;BME280;3631;42.152;24.756;2023-07-22T02:43:33;83850.16;;;-144.30;64.24
7180;BME280;3631;42.152;24.756;2023-07-22T02:46:01;83750.81;;;-144.30;64.00
7180;BME280;3631;42.152;24.756;2023-07-22T02:48:28;83862.09;;;-144.30;64.06
7180;BME280;3631;42.152;24.756;2023-07-22T02:51:03;83889.91;;;-144.30;64.43
7180;BME280;3631;42.152;24.756;2023-07-22T02:53:31;83925.66;;;-144.30;64.74
7180;BME280;3631;42.152;24.756;2023-07-22T02:55:58;83876.00;;;-144.30;64.77
7180;BME280;3631;42.152;24.756;2023-07-22T02:58:25;83909.78;;;-144.30;64.81
7180;BME280;3631;42.152;24.756;2023-07-22T03:00:52;83897.84;;;-144.30;64.72
7180;BME280;3631;42.152;24.756;2023-07-22T03:03:19;83907.78;;;-144.30;64.86
7180;BME280;3631;42.152;24.756;2023-07-22T03:05:46;83895.88;;;-144.30;64.94
7180;BME280;3631;42.152;24.756;2023-07-22T03:08:15;83913.75;;;-144.30;65.11
7180;BME280;3631;42.152;24.756;2023-07-22T03:10:42;83907.78;;;-144.30;65.06
7180;BME280;3631;42.152;24.756;2023-07-22T03:13:13;83866.06;;;-144.30;65.06
7180;BME280;3631;42.152;24.756;2023-07-22T03:15:40;83947.53;;;-144.30;64.79
7180;BME280;3631;42.152;24.756;2023-07-22T03:18:07;83891.88;;;-144.30;64.91
7180;BME280;3631;42.152;24.756;2023-07-22T03:20:35;83804.47;;;-144.30;64.57
7180;BME280;3631;42.152;24.756;2023-07-22T03:23:03;83915.75;;;-144.30;64.97
7180;BME280;3631;42.152;24.756;2023-07-22T03:25:32;83897.84;;;-144.30;65.00
7180;BME280;3631;42.152;24.756;2023-07-22T03:28:02;83806.44;;;-144.30;64.84
7180;BME280;3631;42.152;24.756;2023-07-22T03:30:29;83881.97;;;-144.30;64.55
7180;BME280;3631;42.152;24.756;2023-07-22T03:32:56;83887.91;;;-144.30;64.45
7180;BME280;3631;42.152;24.756;2023-07-22T03:35:24;83850.16;;;-144.30;64.44
7180;BME280;3631;42.152;24.756;2023-07-22T03:37:51;83794.53;;;-144.30;64.01
7180;BME280;3631;42.152;24.756;2023-07-22T03:40:18;83810.41;;;-144.30;63.54
7180;BME280;3631;42.152;24.756;2023-07-22T03:42:48;83838.25;;;-144.30;63.55
7180;BME280;3631;42.152;24.756;2023-07-22T03:45:15;83860.09;;;-144.30;63.24
7180;BME280;3631;42.152;24.756;2023-07-22T03:47:43;83816.38;;;-144.30;62.59
7180;BME280;3631;42.152;24.756;2023-07-22T03:50:11;83796.50;;;-144.30;62.45
7180;BME280;3631;42.152;24.756;2023-07-22T03:52:37;83774.66;;;-144.30;61.95
7180;BME280;3631;42.152;24.756;2023-07-22T03:55:05;83766.72;;;-144.30;61.54
7180;BME280;3631;42.152;24.756;2023-07-22T03:57:32;83713.06;;;-144.30;60.94
7180;BME280;3631;42.152;24.756;2023-07-22T04:00:00;83603.78;;;-144.30;59.42
7180;BME280;3631;42.152;24.756;2023-07-22T04:02:29;83496.50;;;-144.30;56.65
7180;BME280;3631;42.152;24.756;2023-07-22T04:04:56;83262.03;;;-144.30;53.39
7180;BME280;3631;42.152;24.756;2023-07-22T04:07:23;83210.38;;;-144.30;51.54
7180;BME280;3631;42.152;24.756;2023-07-22T04:09:50;83061.41;;;-144.30;49.41
7180;BME280;3631;42.152;24.756;2023-07-22T04:12:17;82962.06;;;-144.30;47.91
7180;BME280;3631;42.152;24.756;2023-07-22T04:14:44;83401.13;;;-144.30;46.46
7180;BME280;3631;42.152;24.756;2023-07-22T04:17:12;82683.97;;;-144.30;44.88
7180;BME280;3631;42.152;24.756;2023-07-22T04:19:41;82560.81;;;-144.30;43.16
7180;BME280;3631;42.152;24.756;2023-07-22T04:22:08;82529.03;;;-144.30;42.80
7180;BME280;3631;42.152;24.756;2023-07-22T04:24:35;82445.59;;;-144.30;42.20
7180;BME280;3631;42.152;24.756;2023-07-22T04:27:03;82233.09;;;-144.30;40.12
7180;BME280;3631;42.152;24.756;2023-07-22T04:29:30;82137.75;;;-144.30;39.25
7180;BME280;3631;42.152;24.756;2023-07-22T04:31:57;82012.63;;;-144.30;38.68
7180;BME280;3631;42.152;24.756;2023-07-22T04:34:28;81933.19;;;-144.30;37.96
7180;BME280;3631;42.152;24.756;2023-07-22T04:36:55;82195.34;;;-144.30;39.03
7180;BME280;3631;42.152;24.756;2023-07-22T04:39:22;82137.75;;;-144.30;39.08
7180;BME280;3631;42.152;24.756;2023-07-22T04:41:49;82113.91;;;-144.30;38.62
7180;BME280;3631;42.152;24.756;2023-07-22T04:44:16;82002.69;;;-144.30;38.38
7180;BME280;3631;42.152;24.756;2023-07-22T04:46:44;81909.38;;;-144.30;37.80
7180;BME280;3631;42.152;24.756;2023-07-22T04:49:11;81909.38;;;-144.30;37.75
7180;BME280;3631;42.152;24.756;2023-07-22T04:51:39;81919.28;;;-144.30;37.58
7180;BME280;3631;42.152;24.756;2023-07-22T04:54:06;81806.09;;;-144.30;36.98
7180;BME280;3631;42.152;24.756;2023-07-22T04:56:33;81603.53;;;-144.30;36.01
7180;BME280;3631;42.152;24.756;2023-07-22T04:59:00;81458.59;;;-144.30;34.88
7180;BME280;3631;42.152;24.756;2023-07-22T05:01:28;81383.13;;;-144.30;34.88
7180;BME280;3631;42.152;24.756;2023-07-22T05:03:55;81264.00;;;-144.30;34.12
7180;BME280;3631;42.152;24.756;2023-07-22T05:06:23;81087.28;;;-144.30;33.09
7180;BME280;3631;42.152;24.756;2023-07-22T05:08:51;80797.41;;;-144.30;32.15
7180;BME280;3631;42.152;24.756;2023-07-22T05:11:18;80565.16;;;-144.30;31.35
7180;BME280;3631;42.152;24.756;2023-07-22T05:13:45;80438.09;;;-144.30;30.92
7180;BME280;3631;42.152;24.756;2023-07-22T05:16:12;80317.00;;;-144.30;30.55
7180;BME280;3631;42.152;24.756;2023-07-22T05:18:39;80418.25;;;-144.30;30.93
7180;BME280;3631;42.152;24.756;2023-07-22T05:21:06;80636.63;;;-144.30;31.42
7180;BME280;3631;42.152;24.756;2023-07-22T05:23:36;80803.38;;;-144.30;31.59
7180;BME280;3631;42.152;24.756;2023-07-22T05:26:05;80753.75;;;-144.30;31.68
7180;BME280;3631;42.152;24.756;2023-07-22T05:28:32;80529.41;;;-144.30;31.01
7180;BME280;3631;42.152;24.756;2023-07-22T05:31:02;80448.03;;;-144.30;30.94
7180;BME280;3631;42.152;24.756;2023-07-22T05:33:30;80509.56;;;-144.30;30.72
7180;BME280;3631;42.152;24.756;2023-07-22T05:35:57;80735.88;;;-144.30;31.53
7180;BME280;3631;42.152;24.756;2023-07-22T05:38:24;80598.91;;;-144.30;31.15
7180;BME280;3631;42.152;24.756;2023-07-22T05:40:51;80537.34;;;-144.30;31.11
7180;BME280;3631;42.152;24.756;2023-07-22T05:43:20;80420.22;;;-144.30;30.50
7180;BME280;3631;42.152;24.756;2023-07-22T05:45:47;80495.66;;;-144.30;30.94
7180;BME280;3631;42.152;24.756;2023-07-22T05:48:14;80463.91;;;-144.30;30.70
7180;BME280;3631;42.152;24.756;2023-07-22T05:50:40;80410.31;;;-144.30;30.71
7180;BME280;3631;42.152;24.756;2023-07-22T05:53:07;80394.44;;;-144.30;30.55
7180;BME280;3631;42.152;24.756;2023-07-22T05:55:34;80473.84;;;-144.30;30.98
7180;BME280;3631;42.152;24.756;2023-07-22T05:58:02;80408.31;;;-144.30;30.52
7180;BME280;3631;42.152;24.756;2023-07-22T06:00:32;80283.28;;;-144.30;30.17
7180;BME280;3631;42.152;24.756;2023-07-22T06:02:59;80338.84;;;-144.30;30.60
7180;BME280;3631;42.152;24.756;2023-07-22T06:05:26;80324.94;;;-144.30;30.32
7180;BME280;3631;42.152;24.756;2023-07-22T06:07:53;80255.47;;;-144.30;30.35
7180;BME280;3631;42.152;24.756;2023-07-22T06:10:22;80132.41;;;-144.30;29.97
7180;BME280;3631;42.152;24.756;2023-07-22T06:12:49;80110.56;;;-144.30;30.16
7180;BME280;3631;42.152;24.756;2023-07-22T06:15:16;80140.34;;;-144.30;30.03
7180;BME280;3631;42.152;24.756;2023-07-22T06:17:44;80164.16;;;-144.30;30.04
7180;BME280;3631;42.152;24.756;2023-07-22T06:20:12;80215.78;;;-144.30;29.83
7180;BME280;3631;42.152;24.756;2023-07-22T06:22:39;80057.00;;;-144.30;29.63
7180;BME280;3631;42.152;24.756;2023-07-22T06:25:06;80080.81;;;-144.30;29.74
7180;BME280;3631;42.152;24.756;2023-07-22T06:27:33;80053.03;;;-144.30;29.68
7180;BME280;3631;42.152;24.756;2023-07-22T06:30:00;80080.81;;;-144.30;29.84
7180;BME280;3631;42.152;24.756;2023-07-22T06:32:27;80211.81;;;-144.30;29.80
7180;BME280;3631;42.152;24.756;2023-07-22T06:34:56;80461.94;;;-144.30;30.58
7180;BME280;3631;42.152;24.756;2023-07-22T06:37:24;80547.28;;;-144.30;31.09
7180;BME280;3631;42.152;24.756;2023-07-22T06:39:51;80438.09;;;-144.30;31.00
7180;BME280;3631;42.152;24.756;2023-07-22T06:42:18;80592.94;;;-144.30;30.84
7180;BME280;3631;42.152;24.756;2023-07-22T06:44:45;80696.16;;;-144.30;31.27
7180;BME280;3631;42.152;24.756;2023-07-22T06:47:12;80954.25;;;-144.30;31.88
7180;BME280;3631;42.152;24.756;2023-07-22T06:49:39;81033.69;;;-144.30;32.67
7180;BME280;3631;42.152;24.756;2023-07-22T06:52:08;80972.13;;;-144.30;32.22
7180;BME280;3631;42.152;24.756;2023-07-22T06:54:35;80954.25;;;-144.30;32.51
7180;BME280;3631;42.152;24.756;2023-07-22T06:57:02;81005.88;;;-144.30;32.97
7180;BME280;3631;42.152;24.756;2023-07-22T06:59:31;80878.81;;;-144.30;32.53
7180;BME280;3631;42.152;24.756;2023-07-22T07:01:58;80896.69;;;-144.30;32.51
7180;BME280;3631;42.152;24.756;2023-07-22T07:04:25;80878.81;;;-144.30;32.08
7180;BME280;3631;42.152;24.756;2023-07-22T07:06:52;80970.16;;;-144.30;32.67
7180;BME280;3631;42.152;24.756;2023-07-22T07:09:21;80960.22;;;-144.30;32.87
7180;BME280;3631;42.152;24.756;2023-07-22T07:11:48;81005.88;;;-144.30;32.58
7180;BME280;3631;42.152;24.756;2023-07-22T07:14:15;81073.38;;;-144.30;33.46
7180;BME280;3631;42.152;24.756;2023-07-22T07:16:42;80984.03;;;-144.30;32.83
7180;BME280;3631;42.152;24.756;2023-07-22T07:19:09;80823.22;;;-144.30;32.01
7180;BME280;3631;42.152;24.756;2023-07-22T07:21:36;80870.88;;;-144.30;32.50
7180;BME280;3631;42.152;24.756;2023-07-22T07:24:03;81005.88;;;-144.30;32.61
7180;BME280;3631;42.152;24.756;2023-07-22T07:26:31;80914.56;;;-144.30;32.69
7180;BME280;3631;42.152;24.756;2023-07-22T07:28:58;81059.50;;;-144.30;33.21
7180;BME280;3631;42.152;24.756;2023-07-22T07:31:24;81043.59;;;-144.30;32.53
7180;BME280;3631;42.152;24.756;2023-07-22T07:33:51;81057.50;;;-144.30;32.58
7180;BME280;3631;42.152;24.756;2023-07-22T07:36:18;81019.78;;;-144.30;32.62
7180;BME280;3631;42.152;24.756;2023-07-22T07:38:44;81113.09;;;-144.30;33.11
7180;BME280;3631;42.152;24.756;2023-07-22T07:41:11;81156.78;;;-144.30;32.95
7180;BME280;3631;42.152;24.756;2023-07-22T07:43:41;81121.03;;;-144.30;33.08
7180;BME280;3631;42.152;24.756;2023-07-22T07:46:16;81067.44;;;-144.30;32.84
7180;BME280;3631;42.152;24.756;2023-07-22T07:48:44;81053.53;;;-144.30;33.07
7180;BME280;3631;42.152;24.756;2023-07-22T07:51:12;80990.00;;;-144.30;32.58
7180;BME280;3631;42.152;24.756;2023-07-22T07:53:39;80815.28;;;-144.30;32.18
7180;BME280;3631;42.152;24.756;2023-07-22T07:56:06;80723.97;;;-144.30;31.99
7180;BME280;3631;42.152;24.756;2023-07-22T07:58:34;80662.44;;;-144.30;31.59
7180;BME280;3631;42.152;24.756;2023-07-22T08:01:02;80585.00;;;-144.30;31.22
7180;BME280;3631;42.152;24.756;2023-07-22T08:03:29;80565.16;;;-144.30;31.43
7180;BME280;3631;42.152;24.756;2023-07-22T08:05:56;80324.94;;;-144.30;30.43
7180;BME280;3631;42.152;24.756;2023-07-22T08:08:23;80195.94;;;-144.30;30.06
7180;BME280;3631;42.152;24.756;2023-07-22T08:10:58;80088.75;;;-144.30;30.00
7180;BME280;3631;42.152;24.756;2023-07-22T08:13:25;80080.81;;;-144.30;29.77
7180;BME280;3631;42.152;24.756;2023-07-22T08:15:52;80211.81;;;-144.30;30.06
7180;BME280;3631;42.152;24.756;2023-07-22T08:18:20;80108.59;;;-144.30;29.63
7180;BME280;3631;42.152;24.756;2023-07-22T08:20:47;79997.44;;;-144.30;29.45
7180;BME280;3631;42.152;24.756;2023-07-22T08:23:14;80029.19;;;-144.30;29.71
7180;BME280;3631;42.152;24.756;2023-07-22T08:25:41;80184.03;;;-144.30;29.84
7180;BME280;3631;42.152;24.756;2023-07-22T08:28:08;80134.41;;;-144.30;29.91
7180;BME280;3631;42.152;24.756;2023-07-22T08:30:35;80182.03;;;-144.30;30.11
7180;BME280;3631;42.152;24.756;2023-07-22T08:33:02;80110.56;;;-144.30;30.08
7180;BME280;3631;42.152;24.756;2023-07-22T08:35:30;80402.38;;;-144.30;30.55
7180;BME280;3631;42.152;24.756;2023-07-22T08:37:57;80446.03;;;-144.30;30.59
7180;BME280;3631;42.152;24.756;2023-07-22T08:40:24;80414.28;;;-144.30;30.91
7180;BME280;3631;42.152;24.756;2023-07-22T08:42:52;80594.94;;;-144.30;31.49
7180;BME280;3631;42.152;24.756;2023-07-22T08:45:20;80690.22;;;-144.30;31.54
7180;BME280;3631;42.152;24.756;2023-07-22T08:47:50;80650.50;;;-144.30;31.54
7180;BME280;3631;42.152;24.756;2023-07-22T08:50:20;80797.41;;;-144.30;31.93
7180;BME280;3631;42.152;24.756;2023-07-22T08:52:51;80783.53;;;-144.30;31.83
7180;BME280;3631;42.152;24.756;2023-07-22T08:55:18;80731.91;;;-144.30;31.53
7180;BME280;3631;42.152;24.756;2023-07-22T08:57:46;80815.28;;;-144.30;31.89
7180;BME280;3631;42.152;24.756;2023-07-22T09:00:13;80934.41;;;-144.30;32.14
7180;BME280;3631;42.152;24.756;2023-07-22T09:02:41;80958.22;;;-144.30;32.49
7180;BME280;3631;42.152;24.756;2023-07-22T09:05:08;80972.13;;;-144.30;32.15
7180;BME280;3631;42.152;24.756;2023-07-22T09:07:36;80982.06;;;-144.30;32.05
7180;BME280;3631;42.152;24.756;2023-07-22T09:10:08;81007.88;;;-144.30;32.74
7180;BME280;3631;42.152;24.756;2023-07-22T09:12:35;81085.31;;;-144.30;32.86
7180;BME280;3631;42.152;24.756;2023-07-22T09:15:08;81035.66;;;-144.30;32.73
7180;BME280;3631;42.152;24.756;2023-07-22T09:17:37;81128.97;;;-144.30;33.23
7180;BME280;3631;42.152;24.756;2023-07-22T09:20:05;81047.56;;;-144.30;32.88
7180;BME280;3631;42.152;24.756;2023-07-22T09:22:34;81045.59;;;-144.30;33.04
7180;BME280;3631;42.152;24.756;2023-07-22T09:25:17;81017.78;;;-144.30;32.66
7180;BME280;3631;42.152;24.756;2023-07-22T09:27:45;80926.47;;;-144.30;32.32
7180;BME280;3631;42.152;24.756;2023-07-22T09:30:23;80980.06;;;-144.30;32.38
7180;BME280;3631;42.152;24.756;2023-07-22T09:32:51;80946.31;;;-144.30;32.17
7180;BME280;3631;42.152;24.756;2023-07-22T09:35:19;80922.50;;;-144.30;32.05
7180;BME280;3631;42.152;24.756;2023-07-22T09:37:46;80839.13;;;-144.30;31.81
7180;BME280;3631;42.152;24.756;2023-07-22T09:40:19;80914.56;;;-144.30;31.90
7180;BME280;3631;42.152;24.756;2023-07-22T09:42:48;80948.31;;;-144.30;32.32
7180;BME280;3631;42.152;24.756;2023-07-22T09:45:15;80932.41;;;-144.30;32.31
7180;BME280;3631;42.152;24.756;2023-07-22T09:47:43;80914.56;;;-144.30;32.05
7180;BME280;3631;42.152;24.756;2023-07-22T09:50:11;80856.97;;;-144.30;32.21
7180;BME280;3631;42.152;24.756;2023-07-22T09:52:44;80823.22;;;-144.30;31.88
7180;BME280;3631;42.152;24.756;2023-07-22T09:55:11;80755.72;;;-144.30;31.11
7180;BME280;3631;42.152;24.756;2023-07-22T09:57:43;80807.34;;;-144.30;31.53
7180;BME280;3631;42.152;24.756;2023-07-22T10:00:11;80855.00;;;-144.30;31.39
7180;BME280;3631;42.152;24.756;2023-07-22T10:02:41;80799.41;;;-144.30;31.43
7180;BME280;3631;42.152;24.756;2023-07-22T10:05:12;80851.03;;;-144.30;31.87
7180;BME280;3631;42.152;24.756;2023-07-22T10:07:43;80908.59;;;-144.30;31.62
7180;BME280;3631;42.152;24.756;2023-07-22T10:10:12;80839.13;;;-144.30;31.76
7180;BME280;3631;42.152;24.756;2023-07-22T10:12:42;80874.84;;;-144.30;31.85
7180;BME280;3631;42.152;24.756;2023-07-22T10:15:09;80779.56;;;-144.30;31.61
7180;BME280;3631;42.152;24.756;2023-07-22T10:17:37;80823.22;;;-144.30;31.45
7180;BME280;3631;42.152;24.756;2023-07-22T10:20:06;80839.13;;;-144.30;31.72
7180;BME280;3631;42.152;24.756;2023-07-22T10:22:36;80811.31;;;-144.30;32.00
7180;BME280;3631;42.152;24.756;2023-07-22T10:25:07;80839.13;;;-144.30;32.06
7180;BME280;3631;42.152;24.756;2023-07-22T10:27:35;81025.72;;;-144.30;31.82
7180;BME280;3631;42.152;24.756;2023-07-22T10:30:08;80847.06;;;-144.30;31.83
7180;BME280;3631;42.152;24.756;2023-07-22T10:32:36;80952.28;;;-144.30;32.63
7180;BME280;3631;42.152;24.756;2023-07-22T10:35:05;80956.25;;;-144.30;32.14
7180;BME280;3631;42.152;24.756;2023-07-22T10:37:35;80997.94;;;-144.30;32.91
7180;BME280;3631;42.152;24.756;2023-07-22T10:40:18;81075.38;;;-144.30;32.66
7180;BME280;3631;42.152;24.756;2023-07-22T10:42:53;81130.97;;;-144.30;33.28
7180;BME280;3631;42.152;24.756;2023-07-22T10:45:29;81121.03;;;-144.30;32.99
7180;BME280;3631;42.152;24.756;2023-07-22T10:48:01;81518.16;;;-144.30;33.50
7180;BME280;3631;42.152;24.756;2023-07-22T10:50:39;81198.47;;;-144.30;33.43
7180;BME280;3631;42.152;24.756;2023-07-22T10:53:06;81242.16;;;-144.30;33.48
7180;BME280;3631;42.152;24.756;2023-07-22T10:55:33;81238.19;;;-144.30;33.45
7180;BME280;3631;42.152;24.756;2023-07-22T10:58:04;81248.13;;;-144.30;33.05
7180;BME280;3631;42.152;24.756;2023-07-22T11:00:33;81303.72;;;-144.30;33.02
7180;BME280;3631;42.152;24.756;2023-07-22T11:03:09;81410.94;;;-144.30;33.45
7180;BME280;3631;42.152;24.756;2023-07-22T11:05:50;81424.81;;;-144.30;33.54
7180;BME280;3631;42.152;24.756;2023-07-22T11:08:36;81458.59;;;-144.30;33.44
7180;BME280;3631;42.152;24.756;2023-07-22T11:11:03;81466.53;;;-144.30;33.75
7180;BME280;3631;42.152;24.756;2023-07-22T11:13:35;81474.47;;;-144.30;33.64
7180;BME280;3631;42.152;24.756;2023-07-22T11:16:10;81403.00;;;-144.30;33.07
7180;BME280;3631;42.152;24.756;2023-07-22T11:18:38;81399.00;;;-144.30;33.45
7180;BME280;3631;42.152;24.756;2023-07-22T11:21:09;81347.38;;;-144.30;33.31
7180;BME280;3631;42.152;24.756;2023-07-22T11:23:36;81335.47;;;-144.30;32.63
7180;BME280;3631;42.152;24.756;2023-07-22T11:26:03;81333.50;;;-144.30;32.17
7180;BME280;3631;42.152;24.756;2023-07-22T11:28:31;81377.16;;;-144.30;32.27
7180;BME280;3631;42.152;24.756;2023-07-22T11:30:58;81309.66;;;-144.30;32.43
7180;BME280;3631;42.152;24.756;2023-07-22T11:33:37;81305.69;;;-144.30;32.10
7180;BME280;3631;42.152;24.756;2023-07-22T11:36:05;81285.84;;;-144.30;32.00
7180;BME280;3631;42.152;24.756;2023-07-22T11:38:32;81283.84;;;-144.30;32.27
7180;BME280;3631;42.152;24.756;2023-07-22T11:40:59;81329.53;;;-144.30;32.31
7180;BME280;3631;42.152;24.756;2023-07-22T11:43:27;81287.81;;;-144.30;32.51
7180;BME280;3631;42.152;24.756;2023-07-22T11:45:54;81283.84;;;-144.30;32.47
7180;BME280;3631;42.152;24.756;2023-07-22T11:48:21;81236.19;;;-144.30;31.83
7180;BME280;3631;42.152;24.756;2023-07-22T11:50:50;81194.50;;;-144.30;31.88
7180;BME280;3631;42.152;24.756;2023-07-22T11:53:17;81218.31;;;-144.30;32.07
7180;BME280;3631;42.152;24.756;2023-07-22T11:55:44;81224.28;;;-144.30;31.79
7180;BME280;3631;42.152;24.756;2023-07-22T11:58:11;81236.19;;;-144.30;31.62
7180;BME280;3631;42.152;24.756;2023-07-22T12:00:42;81216.34;;;-144.30;31.59
7180;BME280;3631;42.152;24.756;2023-07-22T12:03:09;81262.00;;;-144.30;31.57
7180;BME280;3631;42.152;24.756;2023-07-22T12:05:36;81226.28;;;-144.30;31.35
7180;BME280;3631;42.152;24.756;2023-07-22T12:08:05;81244.13;;;-144.30;31.32
7180;BME280;3631;42.152;24.756;2023-07-22T12:10:32;81250.09;;;-144.30;31.62
7180;BME280;3631;42.152;24.756;2023-07-22T12:13:00;81260.03;;;-144.30;31.30
7180;BME280;3631;42.152;24.756;2023-07-22T12:15:28;81236.19;;;-144.30;31.34
7180;BME280;3631;42.152;24.756;2023-07-22T12:17:56;81218.31;;;-144.30;31.52
7180;BME280;3631;42.152;24.756;2023-07-22T12:20:24;81244.13;;;-144.30;31.47
7180;BME280;3631;42.152;24.756;2023-07-22T12:22:52;81206.41;;;-144.30;31.08
7180;BME280;3631;42.152;24.756;2023-07-22T12:25:21;81309.66;;;-144.30;31.08
7180;BME280;3631;42.152;24.756;2023-07-22T12:27:48;81287.81;;;-144.30;31.20
7180;BME280;3631;42.152;24.756;2023-07-22T12:30:16;81347.38;;;-144.30;31.14
7180;BME280;3631;42.152;24.756;2023-07-22T12:32:43;81283.84;;;-144.30;31.15
7180;BME280;3631;42.152;24.756;2023-07-22T12:35:10;81260.03;;;-144.30;31.01
7180;BME280;3631;42.152;24.756;2023-07-22T12:37:39;81204.44;;;-144.30;31.25
7180;BME280;3631;42.152;24.756;2023-07-22T12:40:06;81210.38;;;-144.30;31.07
7180;BME280;3631;42.152;24.756;2023-07-22T12:42:35;81248.13;;;-144.30;30.74
7180;BME280;3631;42.152;24.756;2023-07-22T12:45:03;81295.75;;;-144.30;30.70
7180;BME280;3631;42.152;24.756;2023-07-22T12:47:30;81303.72;;;-144.30;30.84
7180;BME280;3631;42.152;24.756;2023-07-22T12:49:57;81359.31;;;-144.30;30.97
7180;BME280;3631;42.152;24.756;2023-07-22T12:52:24;81341.44;;;-144.30;31.31
7180;BME280;3631;42.152;24.756;2023-07-22T12:54:51;81363.28;;;-144.30;31.23